createdAt,value
2018-06-19T00:03:39.314Z,2.20
2018-06-19T00:08:43.191Z,2.23
2018-06-19T00:13:47.186Z,2.40
2018-06-19T00:18:54.661Z,2.60
2018-06-19T00:23:58.639Z,2.00
2018-06-19T00:29:02.643Z,2.27
2018-06-19T00:34:06.621Z,2.80
2018-06-19T00:39:12.500Z,1.87
2018-06-19T00:44:16.485Z,2.20
2018-06-19T00:49:20.470Z,2.00
2018-06-19T00:54:24.606Z,2.43
2018-06-19T00:59:28.806Z,1.73
2018-06-19T01:04:32.768Z,2.47
2018-06-19T01:09:36.748Z,2.63
2018-06-19T01:14:40.731Z,1.80
2018-06-19T01:19:45.131Z,1.90
2018-06-19T01:24:49.115Z,3.30
2018-06-19T01:29:53.087Z,3.60
2018-06-19T01:34:57.076Z,2.57
2018-06-19T01:40:01.068Z,3.57
2018-06-19T01:45:04.801Z,3.10
2018-06-19T01:50:08.668Z,2.83
2018-06-19T01:55:12.747Z,3.00
2018-06-19T02:00:16.751Z,3.67
2018-06-19T02:05:20.742Z,3.17
2018-06-19T02:10:24.767Z,1.90
2018-06-19T02:15:28.731Z,2.83
2018-06-19T02:20:32.450Z,2.50
2018-06-19T02:25:36.320Z,2.50
2018-06-19T02:30:40.304Z,3.30
2018-06-19T02:35:44.268Z,3.27
2018-06-19T02:40:48.252Z,2.40
2018-06-19T02:45:52.191Z,2.63
2018-06-19T02:50:56.175Z,2.63
2018-06-19T02:55:59.938Z,2.67
2018-06-19T03:01:03.899Z,2.47
2018-06-19T03:06:07.897Z,3.13
2018-06-19T03:11:11.877Z,2.27
2018-06-19T03:16:15.904Z,2.83
2018-06-19T03:21:19.888Z,3.43
2018-06-19T03:26:23.879Z,2.67
2018-06-19T03:31:27.858Z,2.97
2018-06-19T03:36:32.768Z,2.70
2018-06-19T03:41:36.759Z,2.37
2018-06-19T03:46:41.514Z,2.40
2018-06-19T03:51:45.518Z,2.87
2018-06-19T03:56:49.543Z,2.60
2018-06-19T04:01:53.562Z,2.70
2018-06-19T04:06:57.565Z,3.47
2018-06-19T04:12:01.562Z,3.20
2018-06-19T04:17:05.567Z,2.83
2018-06-19T04:22:10.415Z,3.40
2018-06-19T04:27:14.379Z,3.00
2018-06-19T04:32:18.347Z,3.43
2018-06-19T04:37:22.336Z,3.60
2018-06-19T04:42:26.296Z,3.40
2018-06-19T04:47:30.280Z,2.53
2018-06-19T04:52:34.524Z,3.60
2018-06-19T04:57:38.505Z,2.57
2018-06-19T05:02:42.493Z,3.30
2018-06-19T05:07:46.520Z,2.80
2018-06-19T05:12:50.533Z,4.23
2018-06-19T05:17:55.322Z,3.07
2018-06-19T05:22:59.332Z,5.23
2018-06-19T05:28:03.308Z,4.37
2018-06-19T05:33:07.278Z,5.43
2018-06-19T05:38:11.298Z,4.60
2018-06-19T05:43:15.303Z,5.30
2018-06-19T05:48:19.319Z,6.50
2018-06-19T05:53:23.315Z,5.03
2018-06-19T05:58:27.836Z,4.60
2018-06-19T06:03:31.826Z,5.20
2018-06-19T06:08:35.798Z,5.03
2018-06-19T06:13:39.815Z,5.70
2018-06-19T06:18:43.823Z,6.27
2018-06-19T06:23:47.783Z,6.47
2018-06-19T06:28:51.759Z,6.37
2018-06-19T06:33:55.807Z,5.33
2018-06-19T06:38:59.790Z,5.60
2018-06-19T06:44:03.801Z,7.10
2018-06-19T06:49:07.784Z,4.33
2018-06-19T06:54:11.783Z,6.97
2018-06-19T06:59:15.769Z,4.67
2018-06-19T07:04:19.745Z,6.57
2018-06-19T07:09:23.496Z,5.57
2018-06-19T07:14:27.404Z,6.77
2018-06-19T07:19:31.419Z,8.97
2018-06-19T07:24:35.353Z,5.10
2018-06-19T07:29:39.351Z,9.70
2018-06-19T07:34:43.327Z,7.27
2018-06-19T07:39:47.319Z,5.60
2018-06-19T07:44:51.298Z,8.80
2018-06-19T07:49:55.304Z,9.03
2018-06-19T07:54:59.324Z,9.50
2018-06-19T08:00:03.342Z,8.07
2018-06-19T08:05:07.300Z,8.40
2018-06-19T08:10:11.266Z,11.20
2018-06-19T08:15:15.287Z,6.30
2018-06-19T08:20:19.287Z,9.77
2018-06-19T08:25:23.283Z,12.03
2018-06-19T08:30:27.291Z,9.47
2018-06-19T08:35:31.340Z,13.83
2018-06-19T08:40:35.299Z,12.60
2018-06-19T08:45:39.295Z,11.33
2018-06-19T08:50:43.291Z,13.57
2018-06-19T08:55:47.266Z,7.30
2018-06-19T09:00:51.264Z,9.13
2018-06-19T09:05:55.322Z,7.57
2018-06-19T09:11:00.195Z,9.97
2018-06-19T09:16:04.382Z,10.27
2018-06-19T09:21:08.923Z,9.77
2018-06-19T09:26:12.912Z,10.47
2018-06-19T09:31:16.936Z,13.33
2018-06-19T09:36:20.900Z,9.67
2018-06-19T09:41:24.883Z,7.43
2018-06-19T09:46:28.893Z,10.07
2018-06-19T09:51:32.979Z,10.20
2018-06-19T09:56:36.931Z,10.10
2018-06-19T10:01:40.935Z,13.17
2018-06-19T10:06:44.926Z,12.60
2018-06-19T10:11:49.170Z,13.60
2018-06-19T10:16:53.127Z,12.23
2018-06-19T10:21:57.119Z,14.17
2018-06-19T10:27:01.109Z,9.87
2018-06-19T10:32:05.368Z,11.70
2018-06-19T10:37:09.374Z,11.27
2018-06-19T10:42:13.345Z,8.77
2018-06-19T10:47:17.319Z,12.60
2018-06-19T10:52:21.463Z,13.00
2018-06-19T10:57:25.443Z,7.60
2018-06-19T11:02:29.447Z,9.97
2018-06-19T11:07:33.455Z,9.23
2018-06-19T11:12:37.471Z,10.03
2018-06-19T11:17:41.479Z,10.03
2018-06-19T11:22:45.505Z,8.87
2018-06-19T11:27:49.475Z,10.80
2018-06-19T11:32:53.250Z,11.63
2018-06-19T11:37:57.076Z,7.97
2018-06-19T11:43:01.071Z,9.07
2018-06-19T11:48:04.866Z,11.30
2018-06-19T11:53:08.716Z,10.53
2018-06-19T11:58:12.727Z,10.20
2018-06-19T12:03:16.739Z,11.70
2018-06-19T12:08:20.720Z,10.83
2018-06-19T12:13:24.719Z,7.30
2018-06-19T12:18:28.735Z,7.67
2018-06-19T12:23:32.718Z,6.70
2018-06-19T12:28:36.702Z,9.10
2018-06-19T12:33:40.741Z,7.90
2018-06-19T12:38:44.918Z,7.47
2018-06-19T12:43:48.892Z,9.33
2018-06-19T12:48:53.055Z,9.73
2018-06-19T12:54:08.469Z,7.73
2018-06-19T12:59:12.676Z,5.77
2018-06-19T13:04:28.065Z,9.07
2018-06-19T13:09:32.044Z,9.90
2018-06-19T13:14:39.910Z,9.03
2018-06-19T13:19:55.137Z,9.90
2018-06-19T13:24:59.123Z,7.67
2018-06-19T13:30:14.563Z,7.73
2018-06-19T13:35:18.599Z,6.47
2018-06-19T13:41:26.307Z,8.90
2018-06-19T13:46:30.167Z,7.47
2018-06-19T13:51:34.174Z,7.90
2018-06-19T13:57:26.492Z,6.40
2018-06-19T14:02:30.501Z,6.53
2018-06-19T14:07:40.028Z,7.23
2018-06-19T14:13:03.325Z,7.30
2018-06-19T14:18:07.488Z,5.23
2018-06-19T14:23:11.800Z,6.57
2018-06-19T14:28:15.813Z,4.80
2018-06-19T14:33:19.775Z,6.20
2018-06-19T14:38:23.944Z,7.67
2018-06-19T14:43:27.651Z,9.13
2018-06-19T14:48:31.519Z,5.03
2018-06-19T14:53:35.495Z,6.27
2018-06-19T14:58:39.515Z,4.97
2018-06-19T15:03:43.513Z,8.17
2018-06-19T15:08:47.264Z,6.70
2018-06-19T15:13:51.120Z,6.67
2018-06-19T15:18:55.159Z,6.10
2018-06-19T15:23:59.162Z,4.57
2018-06-19T15:29:03.159Z,6.73
2018-06-19T15:34:06.991Z,6.63
2018-06-19T15:39:13.370Z,7.53
2018-06-19T15:44:17.358Z,5.27
2018-06-19T15:49:21.354Z,4.80
2018-06-19T15:54:25.339Z,6.50
2018-06-19T15:59:29.343Z,4.90
2018-06-19T16:04:33.302Z,4.93
2018-06-19T16:09:37.311Z,4.60
2018-06-19T16:14:41.400Z,6.30
2018-06-19T16:19:45.398Z,5.57
2018-06-19T16:24:49.392Z,5.77
2018-06-19T16:29:53.142Z,4.73
2018-06-19T16:34:56.974Z,6.60
2018-06-19T16:40:00.959Z,6.90
2018-06-19T16:45:04.875Z,6.07
2018-06-19T16:50:08.808Z,8.03
2018-06-19T16:55:13.684Z,9.40
2018-06-19T17:00:18.442Z,9.27
2018-06-19T17:05:22.426Z,5.90
2018-06-19T17:10:26.522Z,5.87
2018-06-19T17:15:30.503Z,7.47
2018-06-19T17:20:34.446Z,6.47
2018-06-19T17:25:38.439Z,7.77
2018-06-19T17:30:43.344Z,9.00
2018-06-19T17:35:47.314Z,9.50
2018-06-19T17:40:51.331Z,6.33
2018-06-19T17:45:56.110Z,7.20
2018-06-19T17:51:00.094Z,7.30
2018-06-19T17:56:04.091Z,7.50
2018-06-19T18:01:08.067Z,6.53
2018-06-19T18:06:12.062Z,7.70
2018-06-19T18:11:16.075Z,6.77
2018-06-19T18:16:20.035Z,6.67
2018-06-19T18:21:24.022Z,6.50
2018-06-19T18:26:28.011Z,8.00
2018-06-19T18:31:32.151Z,8.33
2018-06-19T18:36:36.119Z,6.83
2018-06-19T18:41:40.420Z,8.70
2018-06-19T18:46:44.484Z,6.47
2018-06-19T18:51:48.403Z,8.57
2018-06-19T18:56:52.375Z,6.70
2018-06-19T19:01:56.377Z,9.77
2018-06-19T19:07:00.426Z,8.07
2018-06-19T19:12:04.467Z,8.67
2018-06-19T19:17:13.756Z,9.50
2018-06-19T19:22:17.770Z,9.30
2018-06-19T19:27:27.158Z,10.70
2018-06-19T19:32:31.047Z,11.90
2018-06-19T19:37:40.532Z,10.87
2018-06-19T19:42:45.413Z,9.67
2018-06-19T19:47:54.899Z,10.00
2018-06-19T19:52:58.908Z,10.87
2018-06-19T19:58:08.187Z,9.50
2018-06-19T20:03:12.189Z,10.33
2018-06-19T20:08:22.655Z,10.77
2018-06-19T20:13:26.690Z,10.90
2018-06-19T20:18:30.458Z,11.20
2018-06-19T20:23:34.347Z,11.70
2018-06-19T20:28:38.342Z,11.97
2018-06-19T20:33:42.330Z,10.63
2018-06-19T20:38:47.904Z,11.90
2018-06-19T20:43:52.046Z,15.20
2018-06-19T20:48:59.144Z,13.23
2018-06-19T20:54:03.166Z,11.60
2018-06-19T20:59:07.486Z,11.43
2018-06-19T21:04:11.770Z,14.03
2018-06-19T21:09:15.726Z,11.53
2018-06-19T21:14:19.730Z,11.57
2018-06-19T21:19:23.727Z,12.07
2018-06-19T21:24:27.785Z,12.13
2018-06-19T21:29:32.208Z,11.80
2018-06-19T21:34:36.146Z,13.27
2018-06-19T21:39:40.268Z,14.93
2018-06-19T21:44:44.531Z,12.33
2018-06-19T21:49:48.543Z,15.90
2018-06-19T21:54:52.665Z,11.70
2018-06-19T21:59:56.678Z,11.10
2018-06-19T22:05:01.719Z,12.87
2018-06-19T22:10:05.763Z,10.57
2018-06-19T22:15:10.011Z,10.00
2018-06-19T22:20:14.019Z,17.10
2018-06-19T22:25:17.999Z,10.23
2018-06-19T22:30:22.000Z,10.03
2018-06-19T22:35:25.972Z,10.47
2018-06-19T22:40:29.732Z,9.73
2018-06-19T22:45:33.595Z,10.27
2018-06-19T22:50:37.608Z,9.73
2018-06-19T22:55:41.575Z,12.57
2018-06-19T23:00:45.559Z,9.43
2018-06-19T23:05:49.582Z,10.00
2018-06-19T23:10:53.578Z,15.80
2018-06-19T23:15:57.574Z,15.17
2018-06-19T23:21:01.684Z,10.70
2018-06-19T23:26:05.651Z,12.10
2018-06-19T23:31:09.701Z,9.83
2018-06-19T23:36:13.682Z,9.87
2018-06-19T23:41:17.647Z,9.63
2018-06-19T23:46:21.648Z,9.00
2018-06-19T23:51:25.626Z,12.07
2018-06-19T23:56:29.612Z,15.07
